Time;durP1;ratioP1;P1;durP2;ratioP2;P2;SDS_P1;SDS_P2;PMS_P1;PMS_P2;Temp;Humidity;BMP_temperature;BMP_pressure;BME280_temperature;BME280_humidity;BME280_pressure;Samples;Min_cycle;Max_cycle;Signal;HPM_P1;HPM_P2
2022/05/08 00:00:07;;;;;;;13.67;7.83;;;;;;;-145.18;100.00;46623.28;4993644;28;20419;-76
2022/05/08 00:02:34;;;;;;;15.00;8.73;;;;;;;-145.18;100.00;46621.31;4992710;28;20058;-76
2022/05/08 00:04:59;;;;;;;16.97;8.90;;;;;;;-145.18;100.00;46627.19;4993634;28;20314;-76
2022/05/08 00:07:24;;;;;;;18.87;8.60;;;;;;;-145.18;100.00;46625.22;4992752;28;20367;-76
2022/05/08 00:09:50;;;;;;;15.67;8.50;;;;;;;-145.18;100.00;46627.19;4993426;28;20039;-76
2022/05/08 00:12:16;;;;;;;14.07;8.90;;;;;;;-145.18;100.00;46625.22;4992534;28;20037;-76
2022/05/08 00:14:43;;;;;;;19.53;9.07;;;;;;;-145.18;100.00;46629.13;4993247;28;20546;-76
2022/05/08 00:17:13;;;;;;;19.43;8.10;;;;;;;-145.18;100.00;46627.19;4992936;28;20306;-76
2022/05/08 00:19:43;;;;;;;17.80;9.97;;;;;;;-145.18;100.00;46625.22;4993070;28;20034;-76
2022/05/08 00:22:09;;;;;;;20.07;8.93;;;;;;;-145.18;100.00;46617.41;4993128;28;20307;-76
2022/05/08 00:24:35;;;;;;;14.03;8.60;;;;;;;-145.18;100.00;46617.41;4993030;28;20296;-76
2022/05/08 00:27:00;;;;;;;16.90;8.80;;;;;;;-145.18;100.00;46613.50;4992655;28;20037;-76
2022/05/08 00:29:25;;;;;;;14.57;8.00;;;;;;;-145.18;100.00;46613.50;4992930;28;20034;-77
2022/05/08 00:31:51;;;;;;;15.10;8.57;;;;;;;-145.18;100.00;46613.50;4992772;28;20092;-76
2022/05/08 00:34:17;;;;;;;14.03;8.20;;;;;;;-145.18;100.00;46611.56;4993007;28;20439;-77
2022/05/08 00:36:42;;;;;;;16.13;8.70;;;;;;;-145.18;100.00;46611.56;4992430;28;20056;-76
2022/05/08 00:39:08;;;;;;;15.37;7.70;;;;;;;-145.18;100.00;46609.59;4993036;28;20096;-77
2022/05/08 00:41:33;;;;;;;15.00;8.67;;;;;;;-145.18;100.00;46609.59;4992190;28;20113;-76
2022/05/08 00:43:59;;;;;;;15.53;8.33;;;;;;;-145.18;100.00;46568.59;4992941;28;20042;-77
2022/05/08 00:46:24;;;;;;;13.03;8.70;;;;;;;-145.18;100.00;46613.50;4991504;28;20030;-76
2022/05/08 00:48:49;;;;;;;18.80;8.97;;;;;;;-145.18;100.00;46611.56;4992847;28;20030;-76
2022/05/08 00:51:17;;;;;;;17.17;8.00;;;;;;;-145.18;100.00;46609.59;4992412;28;20065;-76
2022/05/08 00:53:45;;;;;;;11.33;8.10;;;;;;;-145.18;100.00;46564.69;4992571;28;20045;-77
2022/05/08 00:56:13;;;;;;;17.90;8.23;;;;;;;-145.18;100.00;46613.50;4992868;28;20702;-77
2022/05/08 00:58:40;;;;;;;20.10;7.87;;;;;;;-145.18;100.00;46613.50;4992356;28;20271;-76
2022/05/08 01:01:07;;;;;;;18.30;7.93;;;;;;;-145.18;100.00;46611.56;4992189;28;20306;-76
2022/05/08 01:03:33;;;;;;;17.77;8.53;;;;;;;-145.18;100.00;46609.59;4991766;28;20768;-76
2022/05/08 01:06:02;;;;;;;19.20;9.03;;;;;;;-145.18;100.00;46609.59;4992445;28;20387;-76
2022/05/08 01:08:28;;;;;;;17.40;9.27;;;;;;;-145.18;100.00;46613.50;4992016;28;20038;-76
2022/05/08 01:10:54;;;;;;;16.40;7.90;;;;;;;-145.18;100.00;46611.56;4992005;28;20307;-76
2022/05/08 01:13:20;;;;;;;16.20;8.17;;;;;;;-145.18;100.00;46615.47;4974305;28;20077;-76
2022/05/08 01:15:47;;;;;;;15.97;9.80;;;;;;;-145.18;100.00;46619.38;4991855;28;20308;-76
2022/05/08 01:18:14;;;;;;;14.57;8.50;;;;;;;-145.18;100.00;46617.41;4974342;28;20054;-76
2022/05/08 01:20:41;;;;;;;24.47;9.17;;;;;;;-145.18;100.00;46611.56;4992131;28;20272;-76
2022/05/08 01:23:08;;;;;;;14.60;8.77;;;;;;;-145.18;100.00;46615.47;4991657;28;20279;-76
2022/05/08 01:25:34;;;;;;;16.80;8.10;;;;;;;-145.18;100.00;46615.47;4991588;28;20276;-75
2022/05/08 01:28:03;;;;;;;22.70;9.20;;;;;;;-145.18;100.00;46613.50;4991666;28;20352;-76
2022/05/08 01:30:29;;;;;;;18.67;9.13;;;;;;;-145.18;100.00;46611.56;4991785;28;20547;-76
2022/05/08 01:32:55;;;;;;;16.53;8.60;;;;;;;-145.18;100.00;46566.63;4991290;28;20287;-76
2022/05/08 01:35:20;;;;;;;20.30;8.67;;;;;;;-145.18;100.00;46613.50;4991433;28;20096;-76
2022/05/08 01:37:46;;;;;;;19.10;7.77;;;;;;;-145.18;100.00;46568.59;4991349;28;20538;-76
2022/05/08 01:40:12;;;;;;;13.77;7.50;;;;;;;-145.18;100.00;46609.59;4991842;28;20045;-76
2022/05/08 01:42:37;;;;;;;18.13;8.30;;;;;;;-145.18;100.00;46562.72;4991061;28;20772;-77
2022/05/08 01:45:03;;;;;;;15.87;7.30;;;;;;;-145.18;100.00;46568.59;4991378;28;20205;-76
2022/05/08 01:50:13;;;;;;;14.53;7.47;;;;;;;-145.18;100.00;46609.59;4992055;28;20089;-76
2022/05/08 01:52:38;;;;;;;19.03;7.30;;;;;;;-145.18;100.00;46613.50;4990966;28;20315;-76
2022/05/08 01:55:04;;;;;;;14.77;7.50;;;;;;;-145.18;100.00;46570.53;4991530;28;20295;-76
2022/05/08 01:57:29;;;;;;;21.43;7.30;;;;;;;-145.18;100.00;46572.50;4973408;28;20462;-76
2022/05/08 01:59:54;;;;;;;22.43;7.53;;;;;;;-145.18;100.00;46617.41;4991460;28;20041;-76
2022/05/08 02:02:20;;;;;;;23.03;7.60;;;;;;;-145.18;100.00;46613.50;5208401;23;20189;-76
2022/05/08 02:04:46;;;;;;;16.00;7.10;;;;;;;-145.18;100.00;46613.50;4964886;28;20043;-75
2022/05/08 02:07:11;;;;;;;16.27;6.30;;;;;;;-145.18;100.00;46613.50;4953854;28;20051;-77
2022/05/08 02:09:37;;;;;;;19.80;7.33;;;;;;;-145.18;100.00;46613.50;4952418;29;20834;-76
2022/05/08 02:12:03;;;;;;;28.30;7.83;;;;;;;-145.18;100.00;46570.53;4951603;29;20039;-76
2022/05/08 02:14:29;;;;;;;16.77;6.80;;;;;;;-145.18;100.00;46617.41;4951950;28;20043;-76
2022/05/08 02:16:54;;;;;;;17.83;7.13;;;;;;;-145.18;100.00;46615.47;4950963;29;20293;-76
2022/05/08 02:19:19;;;;;;;21.00;7.57;;;;;;;-145.18;100.00;46613.50;4952261;29;20039;-73
2022/05/08 02:21:45;;;;;;;19.40;7.03;;;;;;;-145.18;100.00;46617.41;4952566;29;20510;-76
2022/05/08 02:24:10;;;;;;;27.23;7.73;;;;;;;-145.18;100.00;46572.50;4951796;29;20031;-76
2022/05/08 02:26:35;;;;;;;17.47;6.70;;;;;;;-145.18;100.00;46615.47;4952216;29;20798;-76
2022/05/08 02:29:01;;;;;;;20.30;7.17;;;;;;;-145.18;100.00;46615.47;4951924;29;20031;-76
2022/05/08 02:31:26;;;;;;;22.43;7.60;;;;;;;-145.18;100.00;46615.47;4952435;29;20114;-76
2022/05/08 02:33:52;;;;;;;21.87;6.33;;;;;;;-145.18;100.00;46615.47;4952037;29;20027;-76
2022/05/08 02:36:18;;;;;;;17.40;6.87;;;;;;;-145.18;100.00;46615.47;4951874;29;20065;-76
2022/05/08 02:38:44;;;;;;;19.53;7.57;;;;;;;-145.18;100.00;46619.38;4950735;29;20063;-76
2022/05/08 02:41:09;;;;;;;16.53;7.37;;;;;;;-145.18;100.00;46617.41;4951986;29;20277;-76
2022/05/08 02:43:34;;;;;;;22.57;7.47;;;;;;;-145.18;100.00;46572.50;4951680;29;20110;-76
2022/05/08 02:46:02;;;;;;;19.07;7.60;;;;;;;-145.18;100.00;46617.41;4951937;29;20388;-76
2022/05/08 02:48:27;;;;;;;20.60;7.53;;;;;;;-145.18;100.00;46619.38;4951653;29;20039;-76
2022/05/08 02:50:52;;;;;;;22.73;8.37;;;;;;;-145.18;100.00;46572.50;4950421;29;20289;-76
2022/05/08 02:53:20;;;;;;;26.37;7.97;;;;;;;-145.18;100.00;46613.50;4951479;29;20035;-76
2022/05/08 02:58:32;;;;;;;22.20;6.87;;;;;;;-145.18;100.00;46619.38;4951762;29;20308;-76
2022/05/08 03:00:59;;;;;;;25.20;7.67;;;;;;;-145.18;100.00;46617.41;4951806;29;20288;-76
2022/05/08 03:03:25;;;;;;;18.53;7.30;;;;;;;-145.18;100.00;46572.50;4969812;28;20347;-76
2022/05/08 03:05:51;;;;;;;18.80;7.07;;;;;;;-145.18;100.00;46621.31;4970819;28;20288;-76
2022/05/08 03:08:17;;;;;;;22.80;6.50;;;;;;;-145.18;100.00;46619.38;4991353;28;20065;-76
2022/05/08 03:13:36;;;;;;;28.92;5.47;;;;;;;-145.18;100.00;46625.22;5013667;28;20540;-75
2022/05/08 03:16:06;;;;;;;26.93;5.20;;;;;;;-145.18;100.00;46582.25;5014056;28;20062;-74
2022/05/08 03:18:33;;;;;;;24.07;4.80;;;;;;;-145.18;100.00;46635.00;4995955;28;20299;-74
2022/05/08 03:20:58;;;;;;;26.53;5.33;;;;;;;-145.18;100.00;46590.06;5013396;28;20322;-76
2022/05/08 03:23:24;;;;;;;20.23;4.53;;;;;;;-145.18;100.00;46590.06;5013663;28;20267;-76
2022/05/08 03:25:50;;;;;;;23.23;5.23;;;;;;;-145.18;100.00;46588.13;5013767;28;20033;-73
2022/05/08 03:28:15;;;;;;;18.77;4.27;;;;;;;-145.18;100.00;46592.03;4995613;28;20117;-73
2022/05/08 03:30:42;;;;;;;22.23;4.60;;;;;;;-145.18;100.00;46590.06;5013997;28;20076;-74
2022/05/08 03:33:08;;;;;;;26.97;5.10;;;;;;;-145.18;100.00;46582.25;5013263;28;20034;-74
2022/05/08 03:35:34;;;;;;;28.87;5.63;;;;;;;-145.18;100.00;46597.88;5013753;28;20280;-74
2022/05/08 03:38:00;;;;;;;36.40;5.00;;;;;;;-145.18;100.00;46582.25;5013119;28;20353;-74
2022/05/08 03:40:26;;;;;;;29.20;5.67;;;;;;;-145.18;100.00;46584.22;5013670;28;20030;-74
2022/05/08 03:42:55;;;;;;;29.40;5.10;;;;;;;-145.18;100.00;46584.22;5013276;28;20034;-74
2022/05/08 03:45:21;;;;;;;24.87;4.30;;;;;;;-145.18;100.00;46592.03;5013265;28;20271;-74
2022/05/08 03:47:51;;;;;;;24.67;5.33;;;;;;;-145.18;100.00;46597.88;5013283;28;20278;-74
2022/05/08 03:50:17;;;;;;;26.50;4.67;;;;;;;-145.18;100.00;46635.00;5013351;28;20030;-74
2022/05/08 03:52:42;;;;;;;29.17;5.47;;;;;;;-145.18;100.00;46593.97;5013132;28;20279;-74
2022/05/08 03:55:08;;;;;;;30.90;4.23;;;;;;;-145.18;100.00;46595.94;5012980;28;20634;-73
2022/05/08 03:57:33;;;;;;;26.73;5.43;;;;;;;-145.18;100.00;46582.25;5012874;28;20103;-74
2022/05/08 03:59:59;;;;;;;28.30;4.63;;;;;;;-145.18;100.00;46588.13;5013247;28;20034;-74
2022/05/08 04:02:24;;;;;;;41.43;5.37;;;;;;;-145.18;100.00;46582.25;5012651;28;20478;-74
2022/05/08 04:04:50;;;;;;;28.30;6.40;;;;;;;-145.18;100.00;46584.22;5013216;28;20045;-74
2022/05/08 04:07:15;;;;;;;26.97;4.67;;;;;;;-145.18;100.00;46588.13;5012447;28;20030;-74
2022/05/08 04:09:40;;;;;;;25.17;5.47;;;;;;;-145.18;100.00;46636.94;5013123;28;20516;-73
2022/05/08 04:12:06;;;;;;;28.20;4.97;;;;;;;-145.18;100.00;46578.34;5013096;28;20084;-74
2022/05/08 04:14:31;;;;;;;25.17;4.87;;;;;;;-145.18;100.00;46590.06;5012643;28;20037;-74
2022/05/08 04:16:57;;;;;;;27.40;5.23;;;;;;;-145.18;100.00;46617.41;5012732;28;20484;-74
2022/05/08 04:19:22;;;;;;;26.30;4.87;;;;;;;-145.18;100.00;46621.31;5011401;28;20547;-74
2022/05/08 04:21:48;;;;;;;28.30;4.53;;;;;;;-145.18;100.00;46611.56;4978639;28;20042;-74
2022/05/08 04:24:19;;;;;;;24.30;5.10;;;;;;;-145.18;100.00;46568.59;4983167;28;20475;-75
2022/05/08 04:26:46;;;;;;;23.77;4.57;;;;;;;-145.18;100.00;46568.59;4955289;28;20180;-75
2022/05/08 04:29:11;;;;;;;20.67;4.70;;;;;;;-145.18;100.00;46572.50;4991113;28;20303;-75
2022/05/08 04:31:37;;;;;;;23.13;5.00;;;;;;;-145.18;100.00;46619.38;4974645;28;20311;-75
2022/05/08 04:34:03;;;;;;;24.10;5.73;;;;;;;-145.18;100.00;46578.34;4991233;28;20081;-75
2022/05/08 04:36:29;;;;;;;27.80;5.23;;;;;;;-145.18;100.00;46578.34;4992262;28;20035;-75
2022/05/08 04:38:54;;;;;;;28.27;5.30;;;;;;;-145.18;100.00;46617.41;4991660;28;20035;-75
2022/05/08 04:41:20;;;;;;;24.67;4.07;;;;;;;-145.18;100.00;46578.34;4991709;28;20268;-75
2022/05/08 04:43:45;;;;;;;27.93;4.70;;;;;;;-145.18;100.00;46627.19;4991121;28;20403;-74
2022/05/08 04:46:11;;;;;;;26.17;4.57;;;;;;;-145.18;100.00;46580.31;4974718;28;20073;-74
2022/05/08 04:48:38;;;;;;;22.77;5.03;;;;;;;-145.18;100.00;46584.22;4990310;28;20034;-74
2022/05/08 04:51:03;;;;;;;19.10;3.90;;;;;;;-145.18;100.00;46578.34;4982832;28;20718;-75
2022/05/08 04:53:30;;;;;;;34.30;5.10;;;;;;;-145.18;100.00;46584.22;4990758;28;20344;-74
2022/05/08 04:55:56;;;;;;;28.20;4.83;;;;;;;-145.18;100.00;46592.03;4991180;28;20109;-74
2022/05/08 04:58:21;;;;;;;29.63;5.07;;;;;;;-145.18;100.00;46595.94;4981414;28;20384;-74
2022/05/08 05:00:46;;;;;;;24.67;4.80;;;;;;;-145.18;100.00;46592.03;4973245;28;20058;-75
2022/05/08 05:03:12;;;;;;;24.43;4.97;;;;;;;-145.18;100.00;46595.94;4972062;28;20097;-73
2022/05/08 05:05:37;;;;;;;21.13;3.90;;;;;;;-145.18;100.00;46597.88;4972725;28;20042;-75
2022/05/08 05:08:05;;;;;;;26.07;4.60;;;;;;;-145.18;100.00;46601.78;4971342;28;20042;-74
2022/05/08 05:10:30;;;;;;;23.63;4.13;;;;;;;-145.18;100.00;46593.97;4972777;28;20060;-73
2022/05/08 05:12:56;;;;;;;24.77;4.77;;;;;;;-145.18;100.00;46595.94;4972517;28;20741;-72
2022/05/08 05:15:24;;;;;;;25.20;4.27;;;;;;;-145.18;100.00;46601.78;4972221;28;20395;-74
2022/05/08 05:17:50;;;;;;;25.30;3.93;;;;;;;-145.18;100.00;46615.47;4972090;28;20097;-74
2022/05/08 05:20:16;;;;;;;29.17;5.00;;;;;;;-145.18;100.00;46597.88;4970601;28;20384;-74
2022/05/08 05:22:41;;;;;;;16.57;4.20;;;;;;;-145.18;100.00;46615.47;4972339;28;21328;-74
2022/05/08 05:25:07;;;;;;;22.03;4.37;;;;;;;-145.18;100.00;46617.41;4972332;28;20038;-74
2022/05/08 05:27:32;;;;;;;29.30;5.37;;;;;;;-145.18;100.00;46617.41;4971753;28;20531;-74
2022/05/08 05:29:57;;;;;;;29.37;4.77;;;;;;;-145.18;100.00;46621.31;4971744;28;20031;-74
2022/05/08 05:32:23;;;;;;;24.53;4.20;;;;;;;-145.18;100.00;46635.00;4954740;28;20574;-74
2022/05/08 05:34:48;;;;;;;29.30;4.30;;;;;;;-145.18;100.00;46633.06;4972302;28;20495;-74
2022/05/08 05:37:13;;;;;;;23.17;4.33;;;;;;;-145.18;100.00;46646.72;4972047;28;20030;-74
2022/05/08 05:39:39;;;;;;;23.93;4.63;;;;;;;-145.18;100.00;46656.50;4971567;28;20061;-74
2022/05/08 05:42:05;;;;;;;26.57;4.50;;;;;;;-145.18;100.00;46662.34;4972304;28;20035;-74
2022/05/08 05:44:30;;;;;;;22.00;5.23;;;;;;;-145.18;100.00;46679.94;4971713;28;20542;-74
2022/05/08 05:49:39;;;;;;;26.13;4.60;;;;;;;-145.18;100.00;46693.59;4972259;28;20048;-74
2022/05/08 05:52:08;;;;;;;19.00;3.43;;;;;;;-145.18;100.00;46711.19;4971835;28;20281;-74
2022/05/08 05:54:33;;;;;;;16.80;3.70;;;;;;;-145.18;100.00;46691.66;4971571;28;20776;-74
2022/05/08 05:56:59;;;;;;;22.67;4.43;;;;;;;-145.18;100.00;46691.66;4971847;28;20327;-74
2022/05/08 05:59:24;;;;;;;21.47;5.63;;;;;;;-145.18;100.00;46666.25;4990214;28;20030;-74
2022/05/08 06:01:49;;;;;;;23.73;4.17;;;;;;;-145.18;100.00;46717.03;4975250;28;20129;-74
2022/05/08 06:04:15;;;;;;;20.23;3.90;;;;;;;-145.18;100.00;46719.00;4972494;28;20102;-74
2022/05/08 06:06:40;;;;;;;23.87;4.20;;;;;;;-145.18;100.00;46703.38;4980457;28;20034;-74
2022/05/08 06:09:07;;;;;;;24.40;3.87;;;;;;;-145.18;100.00;46693.59;4989583;28;20042;-74
2022/05/08 06:11:32;;;;;;;23.63;4.27;;;;;;;-145.18;100.00;46705.31;4978791;28;20053;-75
2022/05/08 06:13:57;;;;;;;23.97;4.87;;;;;;;-145.18;100.00;46713.13;4970812;28;20273;-75
2022/05/08 06:16:23;;;;;;;28.60;5.57;;;;;;;-145.18;100.00;46717.03;4984498;28;20093;-74
2022/05/08 06:18:48;;;;;;;20.90;4.23;;;;;;;-145.18;100.00;46713.13;4981214;28;20034;-74
2022/05/08 06:21:13;;;;;;;24.43;4.70;;;;;;;-145.18;100.00;46715.09;4977959;28;20046;-75
2022/05/08 06:23:39;;;;;;;26.13;4.30;;;;;;;-145.18;100.00;46722.91;4990162;28;20042;-75
2022/05/08 06:26:04;;;;;;;18.23;4.87;;;;;;;-145.18;100.00;46724.84;4990896;28;20030;-74
2022/05/08 06:28:31;;;;;;;23.97;5.27;;;;;;;-145.18;100.00;46720.94;4990560;28;20046;-74
2022/05/08 06:30:56;;;;;;;16.07;4.53;;;;;;;-145.18;100.00;46738.53;4990488;28;20038;-75
2022/05/08 06:33:22;;;;;;;21.73;4.30;;;;;;;-145.18;100.00;46738.53;4990388;28;20264;-75
2022/05/08 06:35:47;;;;;;;19.53;4.10;;;;;;;-145.18;100.00;46734.63;4990861;28;20046;-75
2022/05/08 06:38:12;;;;;;;23.17;4.10;;;;;;;-145.18;100.00;46758.06;4989888;28;20035;-75
2022/05/08 06:40:39;;;;;;;22.37;3.73;;;;;;;-145.18;100.00;46777.59;4977154;28;20034;-75
2022/05/08 06:43:05;;;;;;;23.47;3.87;;;;;;;-145.18;100.00;46783.47;4969801;28;20027;-75
2022/05/08 06:45:30;;;;;;;20.97;3.50;;;;;;;-145.18;100.00;46785.41;4970897;28;20807;-74
2022/05/08 06:47:56;;;;;;;21.33;3.70;;;;;;;-145.18;100.00;46797.13;4970978;28;20277;-74
2022/05/08 06:50:22;;;;;;;26.37;4.70;;;;;;;-145.18;100.00;46845.97;4969507;28;20061;-75
2022/05/08 06:52:47;;;;;;;23.70;4.63;;;;;;;-145.18;100.00;46818.63;4971058;28;20026;-75
2022/05/08 06:55:13;;;;;;;19.87;4.00;;;;;;;-145.18;100.00;46785.41;4984184;28;20031;-75
2022/05/08 06:57:38;;;;;;;21.03;4.00;;;;;;;-145.18;100.00;46928.00;4990977;28;20035;-75
2022/05/08 07:02:48;;;;;;;21.60;3.83;;;;;;;-145.18;100.00;47269.88;4985572;28;20560;-75
2022/05/08 07:05:14;;;;;;;27.33;4.40;;;;;;;-145.18;100.00;47101.88;4975230;28;20268;-75
2022/05/08 07:07:39;;;;;;;23.70;3.70;;;;;;;-145.18;100.00;47320.69;4969668;28;20483;-75
2022/05/08 07:10:05;;;;;;;21.83;4.47;;;;;;;-145.18;100.00;47389.06;4969651;28;20110;-74
2022/05/08 07:12:30;;;;;;;24.80;5.60;;;;;;;-145.18;100.00;47410.56;4970247;28;20555;-75
2022/05/08 07:14:56;;;;;;;22.40;3.97;;;;;;;-145.18;100.00;47394.91;4952994;28;20031;-75
2022/05/08 07:17:23;;;;;;;19.47;4.03;;;;;;;-145.18;100.00;47424.22;4971015;28;20118;-75
2022/05/08 07:19:48;;;;;;;23.27;4.30;;;;;;;-145.18;100.00;47398.81;4970269;28;20030;-75
2022/05/08 07:22:17;;;;;;;26.10;3.83;;;;;;;-145.18;100.00;47387.09;4988472;28;20337;-74
2022/05/08 07:24:42;;;;;;;24.27;4.60;;;;;;;-145.18;100.00;47391.00;4997333;28;20133;-72
2022/05/08 07:27:11;;;;;;;25.93;4.73;;;;;;;-145.18;100.00;47377.34;4987708;28;20362;-74
2022/05/08 07:29:37;;;;;;;22.57;4.33;;;;;;;-145.18;100.00;47391.00;4972502;28;20451;-74
2022/05/08 07:32:02;;;;;;;16.97;3.87;;;;;;;-145.18;100.00;47367.56;4970182;28;20630;-74
2022/05/08 07:37:11;;;;;;;21.73;3.63;;;;;;;-145.18;100.00;47348.03;4969864;28;20041;-73
2022/05/08 07:39:37;;;;;;;19.47;3.70;;;;;;;-145.18;100.00;47336.31;4969903;28;20265;-73
2022/05/08 07:42:03;;;;;;;18.07;3.60;;;;;;;-145.18;100.00;47357.78;4970137;28;20027;-74
2022/05/08 07:44:28;;;;;;;16.47;3.57;;;;;;;-145.18;100.00;47351.94;4969768;28;20046;-74
2022/05/08 07:46:53;;;;;;;15.77;3.53;;;;;;;-145.18;100.00;47344.13;4970112;28;20110;-74
2022/05/08 07:49:19;;;;;;;17.90;3.23;;;;;;;-145.18;100.00;47340.22;4987541;28;20069;-74
2022/05/08 07:51:44;;;;;;;20.13;4.77;;;;;;;-145.18;100.00;47336.31;4990160;28;20066;-74
2022/05/08 07:54:09;;;;;;;18.50;4.30;;;;;;;-145.18;100.00;47314.81;4990704;28;20256;-73
2022/05/08 07:56:35;;;;;;;17.03;3.63;;;;;;;-145.18;100.00;47307.00;4993528;28;20030;-74
2022/05/08 07:59:00;;;;;;;12.37;2.87;;;;;;;-145.18;100.00;47293.31;4992850;28;20042;-74
2022/05/08 08:01:26;;;;;;;20.03;4.03;;;;;;;-145.18;100.00;47297.22;4976369;28;20038;-74
2022/05/08 08:03:51;;;;;;;24.60;3.83;;;;;;;-145.18;100.00;47301.16;4975295;28;20065;-75
2022/05/08 08:06:16;;;;;;;19.77;2.87;;;;;;;-145.18;100.00;47275.75;4992767;28;20223;-74
2022/05/08 08:08:42;;;;;;;20.77;3.23;;;;;;;-145.18;100.00;47285.50;4993041;28;20038;-73
2022/05/08 08:11:08;;;;;;;17.07;3.40;;;;;;;-145.18;100.00;47275.75;4992803;28;20145;-74
2022/05/08 08:13:35;;;;;;;16.77;3.80;;;;;;;-145.18;100.00;47264.03;4975524;28;20046;-74
2022/05/08 08:16:01;;;;;;;16.07;3.60;;;;;;;-145.18;100.00;47271.84;4993063;28;20753;-74
2022/05/08 08:18:27;;;;;;;14.97;2.80;;;;;;;-145.18;100.00;47265.97;4992765;28;20053;-74
2022/05/08 08:20:52;;;;;;;24.37;3.33;;;;;;;-145.18;100.00;47273.78;4975506;28;20026;-74
2022/05/08 08:23:18;;;;;;;12.67;2.97;;;;;;;-145.18;100.00;47267.94;4992383;28;20533;-74
2022/05/08 08:25:44;;;;;;;15.80;3.03;;;;;;;-145.18;100.00;47265.97;4993268;28;20038;-74
2022/05/08 08:28:10;;;;;;;15.97;3.67;;;;;;;-145.18;100.00;47258.16;4992374;28;20062;-74
2022/05/08 08:30:36;;;;;;;17.53;3.43;;;;;;;-145.18;100.00;47254.25;4993118;28;20196;-73
2022/05/08 08:33:01;;;;;;;17.10;3.83;;;;;;;-145.18;100.00;47240.56;4992208;28;20057;-74
2022/05/08 08:35:27;;;;;;;19.83;3.73;;;;;;;-145.18;100.00;47240.56;4992559;28;20101;-73
2022/05/08 08:37:52;;;;;;;20.03;4.03;;;;;;;-145.18;100.00;47230.81;5006746;28;20137;-74
2022/05/08 08:40:18;;;;;;;17.03;4.47;;;;;;;-145.18;100.00;47248.41;5011645;28;20034;-74
2022/05/08 08:42:44;;;;;;;15.93;3.67;;;;;;;-145.18;100.00;47234.72;4994969;28;20145;-74
2022/05/08 08:47:56;;;;;;;17.13;3.43;;;;;;;-145.18;100.00;47238.63;5012407;28;20570;-74
2022/05/08 08:50:26;;;;;;;19.47;4.80;;;;;;;-145.18;100.00;47226.91;5011567;28;20040;-73
2022/05/08 08:52:54;;;;;;;19.07;3.23;;;;;;;-145.18;100.00;47219.09;5012298;28;20034;-74
2022/05/08 08:55:22;;;;;;;15.30;2.80;;;;;;;-145.18;100.00;47221.03;5011538;28;20034;-73
2022/05/08 08:57:47;;;;;;;17.23;3.33;;;;;;;-145.18;100.00;47203.47;5011873;28;20629;-73
2022/05/08 09:00:13;;;;;;;15.20;3.67;;;;;;;-145.18;100.00;47209.31;5011392;28;20061;-73
2022/05/08 09:02:39;;;;;;;10.97;2.43;;;;;;;-145.18;100.00;47211.28;5011988;28;20050;-74
2022/05/08 09:05:08;;;;;;;14.10;2.90;;;;;;;-145.18;100.00;47193.69;5011167;28;20041;-74
2022/05/08 09:07:39;;;;;;;16.37;3.50;;;;;;;-145.18;100.00;47211.28;5010906;28;20124;-74
2022/05/08 09:10:08;;;;;;;16.03;2.93;;;;;;;-145.18;100.00;47209.31;5011536;28;20036;-74
2022/05/08 09:12:34;;;;;;;17.07;3.37;;;;;;;-145.18;100.00;47226.91;5011835;28;20033;-74
2022/05/08 09:15:15;;;;;;;14.73;2.60;;;;;;;-145.18;100.00;47201.50;5010989;28;20042;-74
2022/05/08 09:17:45;;;;;;;16.07;2.93;;;;;;;-145.18;100.00;47199.56;5011961;28;20041;-74
2022/05/08 09:20:30;;;;;;;13.40;3.07;;;;;;;-145.18;100.00;47211.28;5011268;28;20040;-74
2022/05/08 09:22:59;;;;;;;15.27;3.10;;;;;;;-145.18;100.00;47203.47;5011419;28;20038;-74
2022/05/08 09:25:40;;;;;;;16.03;2.93;;;;;;;-145.18;100.00;47183.94;5011497;28;20034;-73
2022/05/08 09:28:06;;;;;;;17.97;2.90;;;;;;;-145.18;100.00;47181.97;5011479;28;20040;-74
2022/05/08 09:30:31;;;;;;;13.90;2.80;;;;;;;-145.18;100.00;47178.06;5011203;28;20273;-74
2022/05/08 09:32:57;;;;;;;15.17;3.00;;;;;;;-145.18;100.00;47187.84;5011416;28;20559;-74
2022/05/08 09:35:22;;;;;;;13.77;3.20;;;;;;;-145.18;100.00;47178.06;4993534;28;20398;-74
2022/05/08 09:37:52;;;;;;;11.30;3.50;;;;;;;-145.18;100.00;47180.03;5011560;28;20073;-74
2022/05/08 09:40:20;;;;;;;20.53;3.37;;;;;;;-145.18;100.00;47168.28;5010558;28;20045;-74
2022/05/08 09:42:46;;;;;;;13.97;2.40;;;;;;;-145.18;100.00;47174.16;5011323;28;20029;-74
2022/05/08 09:45:12;;;;;;;11.53;2.90;;;;;;;-145.18;100.00;47166.34;5010459;28;20386;-73
2022/05/08 09:47:48;;;;;;;18.10;2.97;;;;;;;-145.18;100.00;47168.28;5011389;28;20034;-74
2022/05/08 09:50:15;;;;;;;10.82;2.42;;;;;;;-145.18;100.00;47158.53;5010705;28;20088;-73
2022/05/08 09:52:42;;;;;;;11.63;2.63;;;;;;;-145.18;100.00;47154.63;5011143;28;20394;-73
2022/05/08 09:55:09;;;;;;;11.33;2.67;;;;;;;-145.18;100.00;47140.94;5010410;28;20624;-73
2022/05/08 09:57:35;;;;;;;15.27;2.53;;;;;;;-145.18;100.00;47125.31;5011151;28;20045;-73
2022/05/08 10:00:03;;;;;;;17.27;3.50;;;;;;;-145.18;100.00;47164.38;5010233;28;20034;-73
2022/05/08 10:02:29;;;;;;;11.87;2.70;;;;;;;-145.18;100.00;47185.88;5011017;28;20402;-73
2022/05/08 10:04:55;;;;;;;15.77;2.97;;;;;;;-145.18;100.00;47172.19;5010298;28;20034;-73
2022/05/08 10:07:21;;;;;;;15.60;3.03;;;;;;;-145.18;100.00;47174.16;5010546;28;20030;-73
2022/05/08 10:15:18;;;;;;;14.10;2.70;;;;;;;-145.18;100.00;47142.91;5010140;28;20060;-73
2022/05/08 10:17:44;;;;;;;9.27;2.77;;;;;;;-145.18;100.00;47137.03;5009504;28;20442;-73
2022/05/08 10:20:09;;;;;;;8.90;2.47;;;;;;;-145.18;100.00;47185.88;5010393;28;20065;-73
2022/05/08 10:22:48;;;;;;;12.13;2.60;;;;;;;-145.18;100.00;47170.25;5009909;28;20038;-73
2022/05/08 10:25:17;;;;;;;10.77;2.90;;;;;;;-145.18;100.00;47146.81;5009427;28;20054;-73
2022/05/08 10:28:18;;;;;;;13.00;2.80;;;;;;;-145.18;100.00;47146.81;5010391;28;20021;-73
2022/05/08 10:30:44;;;;;;;9.33;3.00;;;;;;;-145.18;100.00;47133.13;4930124;29;20595;-73
2022/05/08 10:33:09;;;;;;;12.83;2.60;;;;;;;-145.18;100.00;47121.41;4993034;28;20081;-73
2022/05/08 10:35:35;;;;;;;20.07;3.70;;;;;;;-145.18;100.00;47125.31;5009825;28;20140;-73
2022/05/08 10:38:03;;;;;;;10.37;2.73;;;;;;;-145.18;100.00;47125.31;5010221;28;20052;-73
2022/05/08 10:40:28;;;;;;;13.20;2.43;;;;;;;-145.18;100.00;47125.31;5009440;28;20097;-73
2022/05/08 10:42:55;;;;;;;7.13;2.53;;;;;;;-145.18;100.00;47119.47;5010409;28;20120;-73
2022/05/08 10:45:32;;;;;;;10.63;2.23;;;;;;;-145.18;100.00;47156.56;5009976;28;20064;-73
2022/05/08 10:48:19;;;;;;;11.47;2.47;;;;;;;-145.18;100.00;47154.63;5009957;28;20037;-72
2022/05/08 10:50:46;;;;;;;17.40;3.10;;;;;;;-145.18;100.00;47150.72;5009319;28;20056;-73
2022/05/08 10:53:36;;;;;;;10.57;2.97;;;;;;;-145.18;100.00;47158.53;5010121;28;20041;-72
2022/05/08 10:56:09;;;;;;;10.20;2.10;;;;;;;-145.18;100.00;47150.72;5009910;28;20425;-72
2022/05/08 10:58:37;;;;;;;15.50;3.60;;;;;;;-145.18;100.00;47129.22;5009679;28;20071;-73
2022/05/08 11:01:06;;;;;;;15.07;2.83;;;;;;;-145.18;100.00;47119.47;4995391;28;20034;-73
2022/05/08 11:03:35;;;;;;;12.60;3.17;;;;;;;-145.18;100.00;47139.00;4988006;28;20055;-72
2022/05/08 11:06:01;;;;;;;14.57;3.07;;;;;;;-145.18;100.00;47129.22;4988532;28;20137;-73
2022/05/08 11:08:31;;;;;;;11.83;2.97;;;;;;;-145.18;100.00;47096.00;4989727;28;20117;-72
2022/05/08 11:11:07;;;;;;;14.03;2.73;;;;;;;-145.18;100.00;47096.00;4989956;28;20027;-73
2022/05/08 11:13:49;;;;;;;9.85;3.10;;;;;;;-145.18;100.00;47082.34;4989899;28;20026;-72
2022/05/08 11:16:36;;;;;;;9.97;2.77;;;;;;;-145.18;100.00;47090.16;4990016;28;20114;-72
2022/05/08 11:19:03;;;;;;;11.30;2.73;;;;;;;-145.18;100.00;47078.44;4989781;28;20041;-72
2022/05/08 11:21:29;;;;;;;15.57;3.20;;;;;;;-145.18;100.00;47086.25;4989743;28;20039;-72
2022/05/08 11:23:55;;;;;;;11.67;2.50;;;;;;;-145.18;100.00;47094.06;4989255;28;20045;-72